This is the latest recevied weather packets stored in our database for station/object IW1RCO-13. If no packets are shown the sender has not sent any weather packets the latest 1 day(s).
| Time | Temp. | Humidity | Pressure | Rain* | Wind** | Luminosity | Snow |
|---|---|---|---|---|---|---|---|
| 1778086142 | 12.22° C | 86% | 1008.2 hPa | - | - | - | - |
| 1778085542 | 12.22° C | 90% | 1007.8 hPa | - | - | - | - |
| 1778085245 | 12.22° C | 89% | 1008.3 hPa | - | - | - | - |
| 1778084645 | 12.78° C | 86% | 1008.3 hPa | - | - | - | - |
| 1778083141 | 12.78° C | 83% | 1007.8 hPa | - | - | - | - |
| 1778082244 | 12.78° C | 87% | 1007.8 hPa | - | - | - | - |
| 1778081644 | 13.33° C | 83% | 1008.3 hPa | - | - | - | - |
| 1778081340 | 13.89° C | 80% | 1007.9 hPa | - | - | - | - |
| 1778080140 | 13.89° C | 82% | 1008.1 hPa | - | - | - | - |
| 1778079843 | 13.89° C | 81% | 1008.1 hPa | - | - | - | - |
| 1778075945 | 15.56° C | 81% | 1007.9 hPa | - | - | - | - |
| 1778075041 | 16.11° C | 82% | 1008.6 hPa | - | - | - | - |
| 1778074441 | 13.89° C | 88% | 1008.3 hPa | - | - | - | - |
| 1778073841 | 15° C | 83% | 1007.7 hPa | - | - | - | - |
| 1778073544 | 13.89° C | 88% | 1008.1 hPa | - | - | - | - |
| 1778073241 | 13.33° C | 90% | 1008.5 hPa | - | - | - | - |
| 1778072040 | 13.33° C | 88% | 1008.7 hPa | - | - | - | - |
| 1778070543 | 14.44° C | 87% | 1008.1 hPa | - | - | - | - |
| 1778069639 | 14.44° C | 89% | 1008.1 hPa | - | - | - | - |
| 1778068142 | 12.78° C | 94% | 1008.9 hPa | - | - | - | - |
| 1778067245 | 11.67° C | 98% | 1007.9 hPa | - | - | - | - |
| 1778066645 | 11.67° C | 99% | 1008.1 hPa | - | - | - | - |
| 1778065741 | 11.11° C | 99% | 1008.3 hPa | - | - | - | - |
| 1778064244 | 11.67° C | 99% | 1007.7 hPa | - | - | - | - |
| 1778061843 | 11.67° C | 99% | 1007.4 hPa | - | - | - | - |
* Rain since midnight (hover to see other rain measurements)
** Current wind speed in m/s (hover to see current wind gust speed)